Time;durP1;ratioP1;P1;durP2;ratioP2;P2;SDS_P1;SDS_P2;PMS_P1;PMS_P2;Temp;Humidity;BMP_temperature;BMP_pressure;BME280_temperature;BME280_humidity;BME280_pressure;Samples;Min_cycle;Max_cycle;Signal;HPM_P1;HPM_P2
2021/06/07 00:00:31;;;;;;;2.47;1.65;;;21.00;67.80;;;;;;4994152;28;20041;-66
2021/06/07 00:02:57;;;;;;;5.18;1.80;;;21.10;67.80;;;;;;4994018;28;20033;-67
2021/06/07 00:05:24;;;;;;;2.47;1.65;;;21.00;67.90;;;;;;4994015;28;20093;-67
2021/06/07 00:07:50;;;;;;;2.33;1.80;;;21.00;67.90;;;;;;4995647;28;20023;-67
2021/06/07 00:10:17;;;;;;;4.00;1.50;;;21.00;68.70;;;;;;4993987;28;20035;-67
2021/06/07 00:12:45;;;;;;;2.72;1.75;;;21.00;68.00;;;;;;4994032;28;20390;-67
2021/06/07 00:15:16;;;;;;;1.92;1.45;;;21.00;68.00;;;;;;4993806;28;20473;-67
2021/06/07 00:17:42;;;;;;;3.67;1.70;;;21.00;67.90;;;;;;4993782;28;20094;-67
2021/06/07 00:20:22;;;;;;;1.50;1.40;;;21.00;67.90;;;;;;4993755;28;20027;-67
2021/06/07 00:22:48;;;;;;;2.28;1.75;;;21.00;68.00;;;;;;4993789;28;20027;-67
2021/06/07 00:25:14;;;;;;;1.40;1.30;;;21.00;67.90;;;;;;4993515;28;20026;-67
2021/06/07 00:27:40;;;;;;;2.05;1.30;;;21.00;67.80;;;;;;4992453;28;20036;-67
2021/06/07 00:30:06;;;;;;;7.68;1.70;;;21.00;67.80;;;;;;4993557;28;20057;-67
2021/06/07 00:32:33;;;;;;;2.30;1.80;;;20.90;67.90;;;;;;4993758;28;20479;-67
2021/06/07 00:34:59;;;;;;;1.50;1.40;;;20.90;67.80;;;;;;4997312;28;20541;-67
2021/06/07 00:37:25;;;;;;;1.38;1.27;;;20.90;67.90;;;;;;4993307;28;20042;-67
2021/06/07 00:39:50;;;;;;;4.10;1.63;;;20.80;67.80;;;;;;4992828;28;20023;-66
2021/06/07 00:42:16;;;;;;;3.90;1.80;;;20.90;68.00;;;;;;4993018;28;20026;-67
2021/06/07 00:44:42;;;;;;;1.92;1.73;;;20.80;68.00;;;;;;4993512;28;20030;-67
2021/06/07 00:47:08;;;;;;;1.65;1.48;;;20.80;68.10;;;;;;4993491;28;20026;-67
2021/06/07 00:49:34;;;;;;;1.70;1.60;;;20.80;68.20;;;;;;4993981;28;20073;-67
2021/06/07 00:52:00;;;;;;;2.60;1.40;;;20.80;68.20;;;;;;4992803;28;20034;-66
2021/06/07 00:54:26;;;;;;;4.55;1.77;;;20.80;68.30;;;;;;4993203;28;20514;-66
2021/06/07 00:56:52;;;;;;;1.73;1.60;;;20.80;68.40;;;;;;5011121;28;20026;-66
2021/06/07 00:59:17;;;;;;;3.50;1.42;;;20.80;68.40;;;;;;5011799;28;20061;-66
2021/06/07 01:01:43;;;;;;;3.58;1.75;;;20.80;68.50;;;;;;5011881;28;20053;-66
2021/06/07 01:04:10;;;;;;;1.88;1.35;;;20.80;68.60;;;;;;5012988;28;20037;-66
2021/06/07 01:06:37;;;;;;;3.10;1.80;;;20.80;68.50;;;;;;5013013;28;20040;-66
2021/06/07 01:09:05;;;;;;;2.65;1.58;;;20.80;68.60;;;;;;4994418;28;20026;-66
2021/06/07 01:11:32;;;;;;;2.85;1.65;;;20.80;68.50;;;;;;5012780;28;20117;-67
2021/06/07 01:14:00;;;;;;;2.13;1.58;;;20.80;68.50;;;;;;5011044;28;20080;-66
2021/06/07 01:16:26;;;;;;;2.40;1.90;;;20.80;68.50;;;;;;5012901;28;20021;-66
2021/06/07 01:18:53;;;;;;;2.22;2.03;;;20.80;68.50;;;;;;4996610;28;20034;-66
2021/06/07 01:21:24;;;;;;;4.78;1.75;;;20.80;68.50;;;;;;5003196;28;20053;-66
2021/06/07 01:23:51;;;;;;;1.75;1.63;;;20.80;68.70;;;;;;5007324;28;20026;-66
2021/06/07 01:26:19;;;;;;;2.35;1.58;;;20.80;68.60;;;;;;5007940;28;20560;-68
2021/06/07 01:28:47;;;;;;;2.83;1.58;;;20.80;68.60;;;;;;5007524;28;20030;-66
2021/06/07 01:31:14;;;;;;;2.70;1.70;;;20.80;68.60;;;;;;5012821;28;20052;-66
2021/06/07 01:33:43;;;;;;;1.33;1.23;;;20.80;68.50;;;;;;5001509;28;20025;-66
2021/06/07 01:36:09;;;;;;;5.15;1.42;;;20.80;68.50;;;;;;5024986;28;20029;-66
2021/06/07 01:38:35;;;;;;;3.28;1.70;;;20.80;68.50;;;;;;5013095;28;20034;-66
2021/06/07 01:41:03;;;;;;;4.90;1.95;;;20.80;68.60;;;;;;5002236;28;20035;-66
2021/06/07 01:43:31;;;;;;;7.88;1.88;;;20.80;68.60;;;;;;4994784;28;20117;-66
2021/06/07 01:45:57;;;;;;;2.25;1.55;;;20.80;68.50;;;;;;4999958;28;20034;-66
2021/06/07 01:48:23;;;;;;;2.28;1.70;;;20.80;68.40;;;;;;5010596;28;20384;-66
2021/06/07 01:50:52;;;;;;;2.58;1.73;;;20.80;68.50;;;;;;5013766;28;20030;-66
2021/06/07 01:53:21;;;;;;;1.95;1.45;;;20.80;68.30;;;;;;4995879;28;20403;-67
2021/06/07 01:55:51;;;;;;;1.45;1.35;;;20.70;68.20;;;;;;5006356;28;20026;-66
2021/06/07 01:58:19;;;;;;;2.42;1.48;;;20.80;68.40;;;;;;5006892;28;20023;-66
2021/06/07 02:00:53;;;;;;;4.47;1.80;;;20.70;68.40;;;;;;4995851;28;20030;-67
2021/06/07 02:03:20;;;;;;;2.70;1.95;;;20.70;68.50;;;;;;4998325;28;20030;-66
2021/06/07 02:05:52;;;;;;;2.20;1.70;;;20.80;68.50;;;;;;5011289;28;20043;-66
2021/06/07 02:08:19;;;;;;;2.30;1.58;;;20.70;68.50;;;;;;4999535;28;20017;-67
2021/06/07 02:10:53;;;;;;;4.20;1.73;;;20.70;68.60;;;;;;4996676;28;20040;-66
2021/06/07 02:13:21;;;;;;;4.10;1.98;;;20.70;68.60;;;;;;4996160;28;20023;-66
2021/06/07 02:16:02;;;;;;;4.95;2.45;;;20.70;68.50;;;;;;4995883;28;20022;-66
2021/06/07 02:18:29;;;;;;;1.75;1.65;;;20.70;68.50;;;;;;5000773;28;20026;-66
2021/06/07 02:20:56;;;;;;;3.10;2.05;;;20.70;68.70;;;;;;5013471;28;20030;-66
2021/06/07 02:23:22;;;;;;;1.90;1.67;;;20.70;68.80;;;;;;5005874;28;20436;-66
2021/06/07 02:25:48;;;;;;;2.38;1.70;;;20.70;68.90;;;;;;4995871;28;20064;-67
2021/06/07 02:28:16;;;;;;;2.28;1.85;;;20.70;68.90;;;;;;4998484;28;20416;-68
2021/06/07 02:30:43;;;;;;;2.00;1.70;;;20.80;69.00;;;;;;5004318;28;20025;-66
2021/06/07 02:33:09;;;;;;;7.15;1.77;;;20.80;68.80;;;;;;5015363;28;20105;-67
2021/06/07 02:35:35;;;;;;;5.18;1.85;;;20.70;68.70;;;;;;5000735;28;20022;-66
2021/06/07 02:38:02;;;;;;;3.50;2.10;;;20.70;68.60;;;;;;5006793;28;20554;-66
2021/06/07 02:40:30;;;;;;;1.88;1.73;;;20.70;68.50;;;;;;5000855;28;20048;-66
2021/06/07 02:42:57;;;;;;;2.05;1.88;;;20.70;68.50;;;;;;5001869;28;20030;-66
2021/06/07 02:45:25;;;;;;;3.30;2.08;;;20.70;68.40;;;;;;4996253;28;20129;-66
2021/06/07 02:47:54;;;;;;;2.50;1.88;;;20.70;68.50;;;;;;4994673;28;20038;-66
2021/06/07 02:50:24;;;;;;;5.28;2.17;;;20.70;68.50;;;;;;4995996;28;20018;-66
2021/06/07 02:52:50;;;;;;;5.28;2.83;;;20.60;68.50;;;;;;4995794;28;20030;-66
2021/06/07 02:55:24;;;;;;;5.93;2.72;;;20.60;68.50;;;;;;4995106;28;20539;-66
2021/06/07 02:57:51;;;;;;;;;;;20.60;68.50;;;;;;4997837;28;20110;-67
2021/06/07 03:00:26;;;;;;;2.25;1.95;;;20.60;68.40;;;;;;5014921;28;19906;-66
2021/06/07 03:02:53;;;;;;;2.75;2.17;;;20.60;68.30;;;;;;5013572;28;20026;-66
2021/06/07 03:05:19;;;;;;;5.43;1.90;;;20.50;68.40;;;;;;5014806;28;20029;-66
2021/06/07 03:07:45;;;;;;;2.20;2.00;;;20.50;68.50;;;;;;5014687;28;20026;-66
2021/06/07 03:10:12;;;;;;;4.60;2.00;;;20.50;68.50;;;;;;5014660;28;20088;-66
2021/06/07 03:12:39;;;;;;;2.00;1.80;;;20.40;68.60;;;;;;5013354;28;20033;-66
2021/06/07 03:15:07;;;;;;;2.67;1.90;;;20.40;68.80;;;;;;5014030;28;20030;-66
2021/06/07 03:17:34;;;;;;;2.00;1.80;;;20.40;69.00;;;;;;4994752;28;20026;-66
2021/06/07 03:20:00;;;;;;;2.30;1.85;;;20.50;69.10;;;;;;5009374;28;20029;-66
2021/06/07 03:22:26;;;;;;;2.88;1.90;;;20.40;69.00;;;;;;5014166;28;20030;-66
2021/06/07 03:24:53;;;;;;;6.10;2.15;;;20.50;69.10;;;;;;5014246;28;20479;-66
2021/06/07 03:27:20;;;;;;;2.00;1.80;;;20.40;69.10;;;;;;5014017;28;20081;-66
2021/06/07 03:29:47;;;;;;;5.28;2.40;;;20.40;69.00;;;;;;5014129;28;20095;-66
2021/06/07 03:32:13;;;;;;;4.35;2.78;;;20.40;69.20;;;;;;5013919;28;20075;-67
2021/06/07 03:34:39;;;;;;;3.25;2.42;;;20.50;69.20;;;;;;5013744;28;20029;-67
2021/06/07 03:37:06;;;;;;;2.40;2.20;;;20.50;69.30;;;;;;5012564;28;20022;-66
2021/06/07 03:39:33;;;;;;;2.95;2.50;;;20.50;69.30;;;;;;5013840;28;20053;-66
2021/06/07 03:41:59;;;;;;;2.80;1.95;;;20.50;69.40;;;;;;5013798;28;20022;-66
2021/06/07 03:44:24;;;;;;;2.90;2.60;;;20.60;69.50;;;;;;5010182;28;20032;-66
2021/06/07 03:46:50;;;;;;;2.72;2.50;;;20.60;69.20;;;;;;5002560;28;20029;-66
2021/06/07 03:49:16;;;;;;;4.63;2.20;;;20.60;69.10;;;;;;5011869;28;20497;-66
2021/06/07 03:51:42;;;;;;;3.00;2.63;;;20.60;69.10;;;;;;5013701;28;20029;-66
2021/06/07 03:54:08;;;;;;;4.63;2.35;;;20.70;69.30;;;;;;5002277;28;20077;-65
2021/06/07 03:56:34;;;;;;;4.03;3.17;;;20.70;69.50;;;;;;4993897;28;20023;-66
2021/06/07 03:59:00;;;;;;;3.65;2.80;;;20.70;69.40;;;;;;4993547;28;20027;-66
2021/06/07 04:01:26;;;;;;;3.88;2.58;;;20.80;69.50;;;;;;4992979;28;20089;-66
2021/06/07 04:03:52;;;;;;;7.45;2.50;;;20.90;70.40;;;;;;5000571;28;20018;-66
2021/06/07 04:06:19;;;;;;;6.85;2.72;;;20.90;69.30;;;;;;4994051;28;20027;-66
2021/06/07 04:08:45;;;;;;;6.18;2.15;;;20.90;69.20;;;;;;4993778;28;20443;-67
2021/06/07 04:11:11;;;;;;;6.75;2.90;;;21.00;69.20;;;;;;4993885;28;20030;-66
2021/06/07 04:13:37;;;;;;;21.75;4.45;;;21.10;69.30;;;;;;4992536;28;20026;-66
2021/06/07 04:16:04;;;;;;;4.25;2.90;;;21.20;69.20;;;;;;5004573;28;20022;-66
2021/06/07 04:18:30;;;;;;;6.50;3.50;;;21.20;69.00;;;;;;5011437;28;20029;-66
2021/06/07 04:20:56;;;;;;;3.50;3.13;;;21.30;68.90;;;;;;4996401;28;20030;-66
2021/06/07 04:23:21;;;;;;;4.15;3.13;;;21.40;68.70;;;;;;4993672;28;20085;-66
2021/06/07 04:25:47;;;;;;;3.88;3.42;;;21.50;68.50;;;;;;4993597;28;20033;-66
2021/06/07 04:28:13;;;;;;;4.32;3.22;;;21.60;68.60;;;;;;4992417;28;20038;-66
2021/06/07 04:30:39;;;;;;;13.75;3.53;;;21.60;68.40;;;;;;4994608;28;20062;-66
2021/06/07 04:33:05;;;;;;;5.53;3.38;;;21.70;68.10;;;;;;5012856;28;20056;-66
2021/06/07 04:35:32;;;;;;;6.07;3.63;;;21.80;67.80;;;;;;5012681;28;20037;-66
2021/06/07 04:37:58;;;;;;;10.25;3.65;;;21.90;67.70;;;;;;5013220;28;20026;-66
2021/06/07 04:40:29;;;;;;;5.45;3.35;;;21.90;67.20;;;;;;5011507;28;20026;-66
2021/06/07 04:42:56;;;;;;;4.22;3.83;;;22.00;67.10;;;;;;5010102;28;20052;-66
2021/06/07 04:45:23;;;;;;;4.18;3.35;;;22.10;67.10;;;;;;5013063;28;20069;-66
2021/06/07 04:47:49;;;;;;;7.32;3.83;;;22.20;67.10;;;;;;5004745;28;20045;-66
2021/06/07 04:50:17;;;;;;;6.53;3.47;;;22.20;66.50;;;;;;4993321;28;20026;-66
2021/06/07 04:52:59;;;;;;;3.40;3.08;;;22.20;65.70;;;;;;4999967;28;20029;-66
2021/06/07 04:55:28;;;;;;;4.25;3.60;;;22.30;65.70;;;;;;5004909;28;20049;-66
2021/06/07 04:57:55;;;;;;;5.35;3.35;;;22.30;65.40;;;;;;4993280;28;20022;-66
2021/06/07 05:00:22;;;;;;;4.18;3.75;;;22.30;65.60;;;;;;4991982;28;20031;-66
2021/06/07 05:02:49;;;;;;;6.55;4.22;;;22.30;65.50;;;;;;4999863;28;20022;-66
2021/06/07 05:05:15;;;;;;;5.75;5.05;;;22.40;65.20;;;;;;5012713;28;20088;-66
2021/06/07 05:07:41;;;;;;;6.30;5.18;;;22.40;64.60;;;;;;5011200;28;20065;-66
2021/06/07 05:10:07;;;;;;;9.07;4.65;;;22.40;64.90;;;;;;5012584;28;20065;-66
2021/06/07 05:12:33;;;;;;;8.60;5.65;;;22.40;64.70;;;;;;4998988;28;20022;-66
2021/06/07 05:15:00;;;;;;;12.70;5.40;;;22.50;64.70;;;;;;4997083;28;20439;-66
2021/06/07 05:17:26;;;;;;;9.23;5.38;;;22.50;64.60;;;;;;4997128;28;20014;-66
2021/06/07 05:19:52;;;;;;;7.45;5.78;;;22.50;64.60;;;;;;4996844;28;20022;-66
2021/06/07 05:22:18;;;;;;;6.80;5.40;;;22.60;64.40;;;;;;4996593;28;20022;-66
2021/06/07 05:24:44;;;;;;;10.60;5.75;;;22.60;64.30;;;;;;4996808;28;20034;-66
2021/06/07 05:27:10;;;;;;;9.57;5.90;;;22.60;64.40;;;;;;4996763;28;20027;-66
2021/06/07 05:29:36;;;;;;;9.90;6.60;;;22.70;64.40;;;;;;4997143;28;20066;-66
2021/06/07 05:32:01;;;;;;;11.27;7.25;;;22.70;64.20;;;;;;5013007;28;20060;-66
2021/06/07 05:34:27;;;;;;;9.05;7.10;;;22.70;64.20;;;;;;5013951;28;20102;-66
2021/06/07 05:36:53;;;;;;;12.00;8.00;;;22.80;64.40;;;;;;4997526;28;20041;-66
2021/06/07 05:39:19;;;;;;;10.75;8.07;;;22.80;64.20;;;;;;4996613;28;20453;-66
2021/06/07 05:41:46;;;;;;;10.95;7.35;;;22.90;64.30;;;;;;4996501;28;20026;-66
2021/06/07 05:44:12;;;;;;;14.90;7.85;;;23.00;64.30;;;;;;4999484;28;20522;-66
2021/06/07 05:46:38;;;;;;;11.57;7.90;;;23.10;64.30;;;;;;5001878;28;20061;-66
2021/06/07 05:49:04;;;;;;;13.98;8.77;;;23.20;64.30;;;;;;5016250;28;20391;-66
2021/06/07 05:51:30;;;;;;;15.18;8.88;;;23.30;64.40;;;;;;5016224;28;20030;-66
2021/06/07 05:53:56;;;;;;;18.27;10.95;;;23.40;64.10;;;;;;5015631;28;20499;-67
2021/06/07 05:56:21;;;;;;;20.65;13.25;;;23.50;63.50;;;;;;5012047;28;20480;-66
2021/06/07 05:58:47;;;;;;;27.98;15.65;;;23.60;63.20;;;;;;4996360;28;20395;-66
2021/06/07 06:01:13;;;;;;;32.30;16.10;;;23.70;62.40;;;;;;5003136;28;20032;-66
2021/06/07 06:03:39;;;;;;;34.38;19.48;;;23.90;62.50;;;;;;5014945;28;20117;-66
2021/06/07 06:06:04;;;;;;;36.95;20.90;;;24.00;62.00;;;;;;5014069;28;20125;-66
2021/06/07 06:08:30;;;;;;;39.90;22.35;;;24.00;62.50;;;;;;5014459;28;20045;-66
2021/06/07 06:10:56;;;;;;;23.20;16.02;;;24.10;61.00;;;;;;5008966;28;20076;-66
2021/06/07 06:13:22;;;;;;;29.50;17.00;;;24.20;59.90;;;;;;5007812;28;20026;-66
2021/06/07 06:15:48;;;;;;;33.20;18.83;;;24.30;59.50;;;;;;5015627;28;20033;-67
2021/06/07 06:18:13;;;;;;;38.85;22.00;;;24.30;59.20;;;;;;5013871;28;20391;-66
2021/06/07 06:20:39;;;;;;;39.78;21.98;;;24.40;59.50;;;;;;5015359;28;20562;-66
2021/06/07 06:23:05;;;;;;;43.55;25.33;;;24.50;59.50;;;;;;5012746;28;20045;-66
2021/06/07 06:25:31;;;;;;;39.97;24.30;;;24.50;59.40;;;;;;5011276;28;20373;-66
2021/06/07 06:27:58;;;;;;;47.38;26.80;;;24.70;59.50;;;;;;5015343;28;20093;-67
2021/06/07 06:30:27;;;;;;;48.20;27.48;;;24.90;59.10;;;;;;5015398;28;20387;-66
2021/06/07 06:32:57;;;;;;;42.72;25.40;;;25.00;58.00;;;;;;5015357;28;20029;-66
2021/06/07 06:35:23;;;;;;;43.13;24.25;;;25.20;57.70;;;;;;5002335;28;20038;-67
2021/06/07 06:37:50;;;;;;;43.45;26.20;;;25.20;57.40;;;;;;4997311;28;20105;-66
2021/06/07 06:40:37;;;;;;;44.22;26.90;;;25.30;57.00;;;;;;5015119;28;20148;-66
2021/06/07 06:43:05;;;;;;;48.30;29.55;;;25.50;56.80;;;;;;5014925;28;20499;-67
2021/06/07 06:45:32;;;;;;;46.15;29.52;;;25.60;56.60;;;;;;5006578;28;20113;-67
2021/06/07 06:47:58;;;;;;;43.90;24.50;;;25.70;56.10;;;;;;5013082;28;20026;-67
2021/06/07 06:50:34;;;;;;;33.50;22.08;;;25.80;56.10;;;;;;5014512;28;20424;-66
2021/06/07 06:53:01;;;;;;;32.60;19.92;;;26.00;56.10;;;;;;5014644;28;20018;-67
2021/06/07 06:55:27;;;;;;;38.95;23.67;;;26.10;55.60;;;;;;5001973;28;20034;-67
2021/06/07 06:57:53;;;;;;;38.72;26.25;;;26.30;54.70;;;;;;4994849;28;20029;-67
2021/06/07 07:00:20;;;;;;;37.00;26.40;;;26.40;54.60;;;;;;5007348;28;20030;-67
2021/06/07 07:02:46;;;;;;;37.83;26.17;;;26.50;53.60;;;;;;5012610;28;20155;-67
2021/06/07 07:05:12;;;;;;;32.08;23.67;;;26.50;52.70;;;;;;5003912;28;20110;-67
2021/06/07 07:07:39;;;;;;;35.60;25.30;;;26.60;52.80;;;;;;4994937;28;20096;-67
2021/06/07 07:10:07;;;;;;;38.35;24.85;;;26.60;52.60;;;;;;4994974;28;20026;-67
2021/06/07 07:12:33;;;;;;;39.63;28.02;;;26.70;51.90;;;;;;5001627;28;20026;-67
2021/06/07 07:14:58;;;;;;;42.60;28.42;;;26.70;51.50;;;;;;5005897;28;20435;-66
2021/06/07 07:17:24;;;;;;;40.50;26.08;;;26.70;51.30;;;;;;4994881;28;20455;-67
2021/06/07 07:19:51;;;;;;;41.47;26.95;;;26.70;51.10;;;;;;4999034;28;20019;-67
2021/06/07 07:22:18;;;;;;;43.10;26.92;;;26.60;51.60;;;;;;5013768;28;20022;-67
2021/06/07 07:24:45;;;;;;;45.47;28.65;;;26.60;51.30;;;;;;5007382;28;20018;-67
2021/06/07 07:27:16;;;;;;;46.75;28.92;;;26.50;50.80;;;;;;4994958;28;20063;-67
2021/06/07 07:29:42;;;;;;;41.50;27.42;;;26.40;50.20;;;;;;4995006;28;20113;-67
2021/06/07 07:32:10;;;;;;;42.75;28.58;;;26.30;50.40;;;;;;4998200;28;20027;-67
2021/06/07 07:34:37;;;;;;;38.38;25.55;;;26.10;50.10;;;;;;5011557;28;20427;-67
2021/06/07 07:37:03;;;;;;;37.38;25.48;;;26.00;50.80;;;;;;5012258;28;20014;-66
2021/06/07 07:39:29;;;;;;;38.20;25.17;;;25.90;51.00;;;;;;5008409;28;20030;-67
2021/06/07 07:41:56;;;;;;;35.33;24.25;;;25.80;51.50;;;;;;5011001;28;20041;-66
2021/06/07 07:44:22;;;;;;;38.05;23.75;;;25.80;51.70;;;;;;4998761;28;20034;-66
2021/06/07 07:46:48;;;;;;;41.67;25.63;;;25.70;52.10;;;;;;5004277;28;20076;-67
2021/06/07 07:49:14;;;;;;;49.83;25.83;;;25.70;52.10;;;;;;4994399;28;20034;-67
2021/06/07 07:51:41;;;;;;;40.75;26.27;;;25.70;51.80;;;;;;4997116;28;20404;-67
2021/06/07 07:54:08;;;;;;;45.00;27.35;;;25.70;51.60;;;;;;5009221;28;20177;-67
2021/06/07 07:56:35;;;;;;;35.65;24.73;;;25.60;51.30;;;;;;5013837;28;20022;-67
2021/06/07 07:59:01;;;;;;;36.38;24.50;;;25.60;51.50;;;;;;5001488;28;20121;-67
2021/06/07 08:01:27;;;;;;;37.90;25.42;;;25.50;51.50;;;;;;5008086;28;20025;-67
2021/06/07 08:03:53;;;;;;;36.72;23.33;;;25.50;51.60;;;;;;4996061;28;20095;-67
2021/06/07 08:06:18;;;;;;;39.83;24.55;;;25.40;51.80;;;;;;5006986;28;20026;-67
2021/06/07 08:08:44;;;;;;;40.15;25.17;;;25.50;52.00;;;;;;4997251;28;20523;-67
2021/06/07 08:11:11;;;;;;;34.35;24.15;;;25.50;51.40;;;;;;5000996;28;20041;-67
2021/06/07 08:13:38;;;;;;;34.65;20.85;;;25.50;51.50;;;;;;5006955;28;20018;-67
2021/06/07 08:16:04;;;;;;;33.45;22.92;;;25.40;51.70;;;;;;4996825;28;20040;-67
2021/06/07 08:18:30;;;;;;;36.60;23.48;;;25.40;51.50;;;;;;5010944;28;20112;-67
2021/06/07 08:20:56;;;;;;;39.10;23.67;;;25.40;51.50;;;;;;5012302;28;20113;-67
2021/06/07 08:23:22;;;;;;;36.70;24.83;;;25.40;51.50;;;;;;5000381;28;20031;-67
2021/06/07 08:25:48;;;;;;;36.45;25.83;;;25.50;51.40;;;;;;4993496;28;20057;-67
2021/06/07 08:28:14;;;;;;;39.08;25.30;;;25.50;51.10;;;;;;4993398;28;20484;-67
2021/06/07 08:30:40;;;;;;;38.60;25.70;;;25.50;51.30;;;;;;5001620;28;20037;-66
2021/06/07 08:33:05;;;;;;;32.78;21.85;;;25.50;51.00;;;;;;5011428;28;20042;-67
2021/06/07 08:35:32;;;;;;;37.22;24.88;;;25.50;51.10;;;;;;4998790;28;20081;-66
2021/06/07 08:37:58;;;;;;;38.65;24.02;;;25.50;50.90;;;;;;4993214;28;20018;-67
2021/06/07 08:40:25;;;;;;;35.58;23.70;;;25.60;51.00;;;;;;4997363;28;20022;-66
2021/06/07 08:42:51;;;;;;;32.28;22.90;;;25.60;51.20;;;;;;5004444;28;20027;-67
2021/06/07 08:45:26;;;;;;;29.45;20.30;;;25.60;51.30;;;;;;4992965;28;20037;-67
2021/06/07 08:47:53;;;;;;;31.48;21.35;;;25.70;51.40;;;;;;5010294;28;20054;-66
2021/06/07 08:50:23;;;;;;;25.98;18.20;;;25.80;51.30;;;;;;5012610;28;20026;-67
2021/06/07 08:52:49;;;;;;;21.55;14.00;;;25.80;51.10;;;;;;5009898;28;20416;-67
2021/06/07 08:55:18;;;;;;;16.60;12.15;;;25.90;51.10;;;;;;4997480;28;20077;-66
2021/06/07 08:57:53;;;;;;;18.58;12.40;;;26.00;50.70;;;;;;4992842;28;20534;-67
2021/06/07 09:00:22;;;;;;;15.63;11.52;;;26.10;49.60;;;;;;4992901;28;20039;-67
2021/06/07 09:02:48;;;;;;;16.73;13.00;;;26.20;49.50;;;;;;4997215;28;20018;-67
2021/06/07 09:05:17;;;;;;;24.67;18.38;;;26.20;48.90;;;;;;5004560;28;20080;-66
2021/06/07 09:07:56;;;;;;;28.00;19.58;;;26.20;47.60;;;;;;4999854;28;20105;-66
2021/06/07 09:10:24;;;;;;;24.23;18.42;;;26.20;47.70;;;;;;4993495;28;20030;-67
2021/06/07 09:12:55;;;;;;;30.02;20.75;;;26.20;48.00;;;;;;4992955;28;20510;-67
2021/06/07 09:15:28;;;;;;;24.20;16.73;;;26.30;47.50;;;;;;5000106;28;20480;-66
2021/06/07 09:17:54;;;;;;;20.05;15.52;;;26.30;47.90;;;;;;5009334;28;20045;-66
2021/06/07 09:20:21;;;;;;;18.23;13.80;;;26.40;47.70;;;;;;5012315;28;20507;-67
2021/06/07 09:22:59;;;;;;;14.90;12.13;;;26.40;47.90;;;;;;5010050;28;20459;-66
2021/06/07 09:25:29;;;;;;;19.35;13.52;;;26.40;47.90;;;;;;5002887;28;20107;-67
2021/06/07 09:28:04;;;;;;;18.73;13.70;;;26.50;48.10;;;;;;4993007;28;20032;-66
2021/06/07 09:30:33;;;;;;;14.38;12.45;;;26.60;47.70;;;;;;5004797;28;20480;-67
2021/06/07 09:33:22;;;;;;;19.40;13.35;;;26.60;46.90;;;;;;5002700;28;20030;-66
2021/06/07 09:36:10;;;;;;;20.17;13.75;;;26.60;47.50;;;;;;4997105;28;20038;-67
2021/06/07 09:38:59;;;;;;;16.35;10.75;;;26.70;47.40;;;;;;4992995;28;20503;-66
2021/06/07 09:41:27;;;;;;;11.98;9.50;;;26.80;47.10;;;;;;5008460;28;20034;-66
2021/06/07 09:44:00;;;;;;;12.40;10.35;;;26.80;46.70;;;;;;5017029;28;20060;-67
2021/06/07 09:46:28;;;;;;;14.98;10.60;;;26.80;46.10;;;;;;4996066;28;20481;-66
2021/06/07 09:49:13;;;;;;;14.02;11.05;;;26.90;46.20;;;;;;5011372;28;20033;-66
2021/06/07 09:51:40;;;;;;;;;;;27.00;46.10;;;;;;5032231;28;20040;-66
2021/06/07 09:54:07;;;;;;;17.40;9.85;;;27.10;47.50;;;;;;4994209;28;19914;-66
2021/06/07 09:56:48;;;;;;;13.75;11.23;;;27.10;45.70;;;;;;5004624;28;20030;-67
2021/06/07 09:59:31;;;;;;;18.27;13.13;;;27.10;45.60;;;;;;4999836;28;20026;-66
2021/06/07 10:01:58;;;;;;;19.27;14.38;;;27.20;45.80;;;;;;5012077;28;20506;-67
2021/06/07 10:04:50;;;;;;;22.65;16.67;;;27.20;45.60;;;;;;5007612;28;20081;-67
2021/06/07 10:07:16;;;;;;;24.58;18.25;;;27.30;45.90;;;;;;5005091;28;20030;-66
2021/06/07 10:10:10;;;;;;;26.27;18.02;;;27.40;45.80;;;;;;5012503;28;20044;-67
2021/06/07 10:12:39;;;;;;;27.30;19.70;;;27.40;45.80;;;;;;5064340;28;20562;-67
2021/06/07 10:15:07;;;;;;;26.38;16.83;;;27.50;45.60;;;;;;5064825;28;20447;-67
2021/06/07 10:17:34;;;;;;;24.98;18.83;;;27.60;45.30;;;;;;5053013;28;20037;-66
2021/06/07 10:22:39;;;;;;;27.90;18.75;;;27.90;45.10;;;;;;5055494;28;20112;-67
2021/06/07 10:25:08;;;;;;;20.52;14.30;;;28.00;44.60;;;;;;5066299;28;20047;-66
2021/06/07 10:27:35;;;;;;;17.60;12.18;;;28.10;42.60;;;;;;5052760;28;20540;-67
2021/06/07 10:30:01;;;;;;;24.33;15.80;;;28.20;43.20;;;;;;5052473;28;20048;-67
2021/06/07 10:32:29;;;;;;;22.48;14.25;;;28.40;42.20;;;;;;5067912;28;20548;-67
2021/06/07 10:35:08;;;;;;;21.52;13.88;;;28.50;41.10;;;;;;5070308;28;20039;-67
2021/06/07 10:37:34;;;;;;;16.75;11.20;;;28.80;41.10;;;;;;5058012;28;20029;-66
2021/06/07 10:40:18;;;;;;;21.77;13.30;;;28.90;42.00;;;;;;5072294;28;20414;-66
2021/06/07 10:42:54;;;;;;;21.35;13.57;;;29.20;41.00;;;;;;5065046;28;20036;-67
2021/06/07 10:45:26;;;;;;;17.98;12.80;;;29.40;39.20;;;;;;5072379;28;20036;-67
2021/06/07 10:47:52;;;;;;;18.33;12.45;;;29.70;38.60;;;;;;5072316;28;20032;-67
2021/06/07 10:50:20;;;;;;;15.10;11.32;;;29.90;38.90;;;;;;5006406;28;20043;-67
2021/06/07 10:53:05;;;;;;;7.10;5.18;;;30.00;37.60;;;;;;4997415;28;20041;-66
2021/06/07 10:55:34;;;;;;;8.32;5.32;;;30.20;35.40;;;;;;5009655;28;20109;-68
2021/06/07 10:58:03;;;;;;;9.73;6.13;;;30.20;34.80;;;;;;4995290;28;20120;-68
2021/06/07 11:00:41;;;;;;;7.13;4.35;;;30.40;34.60;;;;;;5006097;28;20098;-67
2021/06/07 11:03:32;;;;;;;6.25;4.10;;;30.50;35.20;;;;;;4995176;28;20050;-67
2021/06/07 11:06:00;;;;;;;4.50;3.72;;;30.70;34.40;;;;;;4995179;28;20476;-67
2021/06/07 11:08:31;;;;;;;6.15;3.67;;;30.80;33.90;;;;;;5006664;28;20034;-70
2021/06/07 11:11:04;;;;;;;7.65;3.80;;;31.10;33.20;;;;;;5013443;28;20381;-70
2021/06/07 11:13:32;;;;;;;9.98;5.88;;;31.30;33.10;;;;;;4998401;28;20081;-70
2021/06/07 11:16:04;;;;;;;6.78;4.78;;;31.50;33.00;;;;;;5033999;28;20079;-77
2021/06/07 11:18:38;;;;;;;8.50;4.60;;;31.60;33.20;;;;;;5027006;28;20022;-76
2021/06/07 11:21:09;;;;;;;5.82;5.22;;;31.80;32.50;;;;;;5012026;28;20076;-76
2021/06/07 11:23:43;;;;;;;7.53;4.75;;;32.00;32.40;;;;;;5003085;28;20037;-67
2021/06/07 11:26:19;;;;;;;6.30;5.03;;;32.00;31.90;;;;;;5005647;28;20026;-67
2021/06/07 11:28:50;;;;;;;5.45;4.05;;;32.00;31.00;;;;;;5000855;28;20036;-63
2021/06/07 11:31:19;;;;;;;5.80;4.50;;;31.90;30.60;;;;;;5003191;28;20033;-70
2021/06/07 11:33:59;;;;;;;7.15;4.82;;;31.90;31.80;;;;;;4997015;28;20081;-71
2021/06/07 11:36:47;;;;;;;5.40;4.38;;;31.80;32.40;;;;;;5007158;28;20150;-65
2021/06/07 11:39:22;;;;;;;4.72;4.30;;;31.70;33.10;;;;;;5011681;28;20026;-66
2021/06/07 11:41:53;;;;;;;7.55;4.68;;;31.60;31.90;;;;;;4991456;28;20173;-66
2021/06/07 11:44:39;;;;;;;5.90;3.95;;;31.50;32.20;;;;;;5002118;28;20030;-64
2021/06/07 11:47:05;;;;;;;4.68;4.13;;;31.40;32.30;;;;;;5012151;28;20105;-66
2021/06/07 11:49:31;;;;;;;4.13;3.72;;;31.20;30.90;;;;;;5007959;28;20157;-68
2021/06/07 11:52:09;;;;;;;4.18;3.60;;;31.00;31.00;;;;;;5001130;28;20029;-65
2021/06/07 11:54:35;;;;;;;6.13;3.78;;;30.70;32.80;;;;;;4992780;28;20508;-71
2021/06/07 11:57:06;;;;;;;7.47;4.25;;;30.40;33.80;;;;;;5001905;28;20064;-69
2021/06/07 11:59:38;;;;;;;6.97;4.00;;;30.10;34.20;;;;;;5010410;28;20022;-76
2021/06/07 12:02:12;;;;;;;5.05;4.10;;;29.80;35.10;;;;;;5004637;28;20022;-75
2021/06/07 12:04:39;;;;;;;4.63;3.90;;;29.50;36.40;;;;;;4998838;28;20488;-72
2021/06/07 12:07:12;;;;;;;4.53;3.35;;;29.20;36.50;;;;;;5016401;28;20033;-77
2021/06/07 12:09:39;;;;;;;4.05;3.30;;;28.90;37.30;;;;;;4993705;28;20065;-71
2021/06/07 12:12:06;;;;;;;5.32;3.63;;;28.60;37.30;;;;;;5008721;28;20025;-71
2021/06/07 12:14:39;;;;;;;3.17;2.88;;;28.40;37.90;;;;;;4993476;28;20484;-71
2021/06/07 12:17:18;;;;;;;5.67;3.37;;;28.30;38.30;;;;;;5006229;28;20038;-74
2021/06/07 12:19:52;;;;;;;5.00;3.47;;;28.10;38.00;;;;;;5009967;28;20858;-79
2021/06/07 12:22:38;;;;;;;3.30;2.60;;;27.90;38.20;;;;;;4997943;28;20030;-78
2021/06/07 12:30:30;;;;;;;5.25;2.60;;;27.70;39.20;;;;;;5004620;28;20092;-68
2021/06/07 12:32:56;;;;;;;6.60;2.85;;;27.70;39.20;;;;;;4993221;28;20041;-68
2021/06/07 12:35:23;;;;;;;3.88;2.75;;;27.60;39.70;;;;;;5003634;28;20029;-71
2021/06/07 12:38:13;;;;;;;3.08;2.55;;;27.60;39.70;;;;;;5023489;28;20510;-76
2021/06/07 12:40:42;;;;;;;5.80;2.92;;;27.60;39.90;;;;;;5032596;28;20116;-75
2021/06/07 12:43:08;;;;;;;10.88;3.20;;;27.60;39.70;;;;;;4994397;28;20030;-78
2021/06/07 12:45:44;;;;;;;7.40;2.90;;;27.60;39.70;;;;;;4993166;28;20079;-73
2021/06/07 12:48:10;;;;;;;4.90;3.63;;;27.60;39.90;;;;;;4995024;28;20030;-77
2021/06/07 12:50:37;;;;;;;3.67;3.15;;;27.60;40.00;;;;;;4998940;28;20345;-76
2021/06/07 12:53:03;;;;;;;4.05;3.38;;;27.60;39.80;;;;;;5001280;28;20027;-78